sensor_id;sensor_type;location;lat;lon;timestamp;pressure;altitude;pressure_sealevel;temperature;humidity
63700;BME280;49845;47.130;142.766;2024-01-10T00:00:04;99933.56;;;-13.67;78.83
63700;BME280;49845;47.130;142.766;2024-01-10T00:02:34;99922.97;;;-13.63;78.89
63700;BME280;49845;47.130;142.766;2024-01-10T00:05:05;99926.25;;;-13.64;78.76
63700;BME280;49845;47.130;142.766;2024-01-10T00:07:36;99930.19;;;-13.56;79.60
63700;BME280;49845;47.130;142.766;2024-01-10T00:10:07;99925.72;;;-13.60;79.42
63700;BME280;49845;47.130;142.766;2024-01-10T00:12:40;99913.13;;;-13.72;80.10
63700;BME280;49845;47.130;142.766;2024-01-10T00:15:12;99925.91;;;-13.69;80.23
63700;BME280;49845;47.130;142.766;2024-01-10T00:17:43;99932.78;;;-13.66;79.81
63700;BME280;49845;47.130;142.766;2024-01-10T00:20:14;99928.66;;;-13.54;79.84
63700;BME280;49845;47.130;142.766;2024-01-10T00:22:44;99923.88;;;-13.51;78.90
63700;BME280;49845;47.130;142.766;2024-01-10T00:25:15;99943.31;;;-13.60;76.50
63700;BME280;49845;47.130;142.766;2024-01-10T00:27:47;99958.13;;;-13.63;76.78
63700;BME280;49845;47.130;142.766;2024-01-10T00:30:17;99954.91;;;-13.50;76.57
63700;BME280;49845;47.130;142.766;2024-01-10T00:32:48;99953.13;;;-13.63;77.39
63700;BME280;49845;47.130;142.766;2024-01-10T00:35:18;99952.91;;;-13.66;77.53
63700;BME280;49845;47.130;142.766;2024-01-10T00:37:49;99954.88;;;-13.62;78.13
63700;BME280;49845;47.130;142.766;2024-01-10T00:40:19;99953.59;;;-13.57;78.32
63700;BME280;49845;47.130;142.766;2024-01-10T00:42:51;99954.91;;;-13.38;78.55
63700;BME280;49845;47.130;142.766;2024-01-10T00:45:21;99965.00;;;-13.15;78.43
63700;BME280;49845;47.130;142.766;2024-01-10T00:47:52;99942.47;;;-13.25;77.38
63700;BME280;49845;47.130;142.766;2024-01-10T00:50:22;99921.72;;;-13.34;77.99
63700;BME280;49845;47.130;142.766;2024-01-10T00:52:53;99944.88;;;-13.15;76.27
63700;BME280;49845;47.130;142.766;2024-01-10T00:55:23;99952.09;;;-13.08;76.74
63700;BME280;49845;47.130;142.766;2024-01-10T00:57:55;99946.19;;;-13.20;76.40
63700;BME280;49845;47.130;142.766;2024-01-10T01:00:26;99951.88;;;-13.22;77.26
63700;BME280;49845;47.130;142.766;2024-01-10T01:02:56;99953.38;;;-13.13;76.98
63700;BME280;49845;47.130;142.766;2024-01-10T01:05:27;99951.22;;;-13.20;76.23
63700;BME280;49845;47.130;142.766;2024-01-10T01:07:57;99949.03;;;-13.27;75.46
63700;BME280;49845;47.130;142.766;2024-01-10T01:10:28;99955.91;;;-13.36;76.04
63700;BME280;49845;47.130;142.766;2024-01-10T01:13:02;99954.06;;;-13.39;75.97
63700;BME280;49845;47.130;142.766;2024-01-10T01:15:33;99958.22;;;-13.39;75.64
63700;BME280;49845;47.130;142.766;2024-01-10T01:18:03;99956.66;;;-13.49;75.60
63700;BME280;49845;47.130;142.766;2024-01-10T01:20:34;99953.81;;;-13.54;75.40
63700;BME280;49845;47.130;142.766;2024-01-10T01:23:05;99937.59;;;-13.69;75.48
63700;BME280;49845;47.130;142.766;2024-01-10T01:25:35;99946.34;;;-13.64;74.80
63700;BME280;49845;47.130;142.766;2024-01-10T01:28:08;99950.06;;;-13.59;74.32
63700;BME280;49845;47.130;142.766;2024-01-10T01:30:38;99944.53;;;-13.55;74.29
63700;BME280;49845;47.130;142.766;2024-01-10T01:33:09;99947.38;;;-13.38;74.06
63700;BME280;49845;47.130;142.766;2024-01-10T01:35:39;99956.00;;;-13.47;73.06
63700;BME280;49845;47.130;142.766;2024-01-10T01:38:10;99958.94;;;-13.40;72.67
63700;BME280;49845;47.130;142.766;2024-01-10T01:40:40;99954.50;;;-13.44;72.25
63700;BME280;49845;47.130;142.766;2024-01-10T01:43:22;99947.88;;;-13.66;72.52
63700;BME280;49845;47.130;142.766;2024-01-10T01:45:53;99962.78;;;-13.45;72.12
63700;BME280;49845;47.130;142.766;2024-01-10T01:48:24;99908.44;;;-14.01;72.53
63700;BME280;49845;47.130;142.766;2024-01-10T01:50:57;99928.72;;;-13.87;72.38
63700;BME280;49845;47.130;142.766;2024-01-10T01:53:27;99960.97;;;-13.70;72.00
63700;BME280;49845;47.130;142.766;2024-01-10T01:56:02;99959.59;;;-13.55;71.71
63700;BME280;49845;47.130;142.766;2024-01-10T01:58:35;99947.69;;;-13.45;71.33
63700;BME280;49845;47.130;142.766;2024-01-10T02:01:06;99955.78;;;-13.38;70.72
63700;BME280;49845;47.130;142.766;2024-01-10T02:03:37;99966.16;;;-13.57;69.33
63700;BME280;49845;47.130;142.766;2024-01-10T02:06:07;99954.88;;;-13.62;69.62
63700;BME280;49845;47.130;142.766;2024-01-10T02:08:38;99957.09;;;-13.55;69.80
63700;BME280;49845;47.130;142.766;2024-01-10T02:11:08;99964.53;;;-13.44;69.57
63700;BME280;49845;47.130;142.766;2024-01-10T02:13:41;99966.88;;;-13.58;68.32
63700;BME280;49845;47.130;142.766;2024-01-10T02:16:12;99899.66;;;-14.18;69.21
63700;BME280;49845;47.130;142.766;2024-01-10T02:18:42;99982.34;;;-13.75;68.66
63700;BME280;49845;47.130;142.766;2024-01-10T02:21:13;99982.13;;;-13.78;68.74
63700;BME280;49845;47.130;142.766;2024-01-10T02:23:43;99978.16;;;-13.86;68.83
63700;BME280;49845;47.130;142.766;2024-01-10T02:26:15;99983.19;;;-13.86;68.87
63700;BME280;49845;47.130;142.766;2024-01-10T02:28:46;99975.59;;;-13.76;69.60
63700;BME280;49845;47.130;142.766;2024-01-10T02:31:17;99987.00;;;-13.58;69.59
63700;BME280;49845;47.130;142.766;2024-01-10T02:33:47;99967.44;;;-13.62;68.87
63700;BME280;49845;47.130;142.766;2024-01-10T02:36:17;99980.81;;;-13.85;68.38
63700;BME280;49845;47.130;142.766;2024-01-10T02:38:48;99988.63;;;-13.92;68.63
63700;BME280;49845;47.130;142.766;2024-01-10T02:41:20;99978.59;;;-13.92;69.06
63700;BME280;49845;47.130;142.766;2024-01-10T02:43:50;99990.22;;;-13.82;69.08
63700;BME280;49845;47.130;142.766;2024-01-10T02:46:21;99982.13;;;-13.78;69.66
63700;BME280;49845;47.130;142.766;2024-01-10T02:48:51;99972.91;;;-13.56;68.82
63700;BME280;49845;47.130;142.766;2024-01-10T02:51:22;99973.38;;;-13.26;67.96
63700;BME280;49845;47.130;142.766;2024-01-10T02:53:52;99977.22;;;-13.31;67.38
63700;BME280;49845;47.130;142.766;2024-01-10T02:56:24;99972.84;;;-13.22;67.70
63700;BME280;49845;47.130;142.766;2024-01-10T02:58:55;99983.34;;;-13.16;67.21
63700;BME280;49845;47.130;142.766;2024-01-10T03:01:25;99982.91;;;-13.22;67.60
63700;BME280;49845;47.130;142.766;2024-01-10T03:03:55;99986.16;;;-13.23;67.90
63700;BME280;49845;47.130;142.766;2024-01-10T03:06:26;99987.97;;;-13.56;67.37
63700;BME280;49845;47.130;142.766;2024-01-10T03:08:56;99992.81;;;-13.81;66.71
63700;BME280;49845;47.130;142.766;2024-01-10T03:11:28;99983.63;;;-13.80;66.81
63700;BME280;49845;47.130;142.766;2024-01-10T03:14:02;99994.16;;;-13.74;66.12
63700;BME280;49845;47.130;142.766;2024-01-10T03:16:32;99990.81;;;-13.63;66.23
63700;BME280;49845;47.130;142.766;2024-01-10T03:19:03;99994.25;;;-13.39;66.78
63700;BME280;49845;47.130;142.766;2024-01-10T03:21:33;99979.22;;;-13.27;66.16
63700;BME280;49845;47.130;142.766;2024-01-10T03:24:13;99967.78;;;-13.45;65.65
63700;BME280;49845;47.130;142.766;2024-01-10T03:26:45;99978.75;;;-13.33;66.03
63700;BME280;49845;47.130;142.766;2024-01-10T03:29:15;99982.91;;;-13.22;66.26
63700;BME280;49845;47.130;142.766;2024-01-10T03:31:46;99978.78;;;-13.10;65.46
63700;BME280;49845;47.130;142.766;2024-01-10T03:34:16;99983.34;;;-13.16;66.61
63700;BME280;49845;47.130;142.766;2024-01-10T03:36:47;99984.25;;;-13.27;67.75
63700;BME280;49845;47.130;142.766;2024-01-10T03:39:17;100000.38;;;-13.35;69.06
63700;BME280;49845;47.130;142.766;2024-01-10T03:41:50;99988.03;;;-13.20;70.33
63700;BME280;49845;47.130;142.766;2024-01-10T03:44:20;100003.31;;;-13.41;71.20
63700;BME280;49845;47.130;142.766;2024-01-10T03:46:51;100005.34;;;-13.59;72.07
63700;BME280;49845;47.130;142.766;2024-01-10T03:49:21;100013.47;;;-13.51;72.35
63700;BME280;49845;47.130;142.766;2024-01-10T03:51:52;100006.91;;;-13.49;72.73
63700;BME280;49845;47.130;142.766;2024-01-10T03:54:22;100011.50;;;-13.43;72.45
63700;BME280;49845;47.130;142.766;2024-01-10T03:56:54;100006.28;;;-13.47;72.37
63700;BME280;49845;47.130;142.766;2024-01-10T03:59:24;100009.56;;;-13.48;72.64
63700;BME280;49845;47.130;142.766;2024-01-10T04:01:55;100019.72;;;-13.68;72.16
63700;BME280;49845;47.130;142.766;2024-01-10T04:04:25;100010.16;;;-13.62;72.50
63700;BME280;49845;47.130;142.766;2024-01-10T04:06:56;100017.50;;;-13.75;72.47
63700;BME280;49845;47.130;142.766;2024-01-10T04:09:26;100018.22;;;-13.66;72.31
63700;BME280;49845;47.130;142.766;2024-01-10T04:11:58;100001.06;;;-13.94;73.02
63700;BME280;49845;47.130;142.766;2024-01-10T04:14:29;100009.38;;;-13.95;73.88
63700;BME280;49845;47.130;142.766;2024-01-10T04:16:59;100019.88;;;-13.88;73.96
63700;BME280;49845;47.130;142.766;2024-01-10T04:19:29;100026.19;;;-13.94;73.47
63700;BME280;49845;47.130;142.766;2024-01-10T04:22:00;100022.44;;;-13.99;73.29
63700;BME280;49845;47.130;142.766;2024-01-10T04:24:30;100025.00;;;-14.09;72.48
63700;BME280;49845;47.130;142.766;2024-01-10T04:27:03;100021.72;;;-14.08;72.12
63700;BME280;49845;47.130;142.766;2024-01-10T04:29:37;100015.13;;;-14.18;72.35
63700;BME280;49845;47.130;142.766;2024-01-10T04:32:07;100015.53;;;-14.23;72.87
63700;BME280;49845;47.130;142.766;2024-01-10T04:34:38;100024.06;;;-14.21;72.27
63700;BME280;49845;47.130;142.766;2024-01-10T04:37:08;100009.97;;;-14.41;72.85
63700;BME280;49845;47.130;142.766;2024-01-10T04:39:38;100033.50;;;-14.29;72.76
63700;BME280;49845;47.130;142.766;2024-01-10T04:42:13;100043.59;;;-14.39;72.63
63700;BME280;49845;47.130;142.766;2024-01-10T04:44:43;100045.28;;;-14.50;73.43
63700;BME280;49845;47.130;142.766;2024-01-10T04:47:13;100043.69;;;-14.60;73.87
63700;BME280;49845;47.130;142.766;2024-01-10T04:49:44;100046.53;;;-14.55;73.89
63700;BME280;49845;47.130;142.766;2024-01-10T04:52:14;100050.81;;;-14.54;73.86
63700;BME280;49845;47.130;142.766;2024-01-10T04:54:45;100055.53;;;-14.47;73.59
63700;BME280;49845;47.130;142.766;2024-01-10T04:57:17;100078.22;;;-14.45;73.69
63700;BME280;49845;47.130;142.766;2024-01-10T04:59:47;100036.69;;;-14.64;73.23
63700;BME280;49845;47.130;142.766;2024-01-10T05:02:18;100073.84;;;-14.48;73.60
63700;BME280;49845;47.130;142.766;2024-01-10T05:04:49;100071.63;;;-14.55;73.79
63700;BME280;49845;47.130;142.766;2024-01-10T05:07:20;100073.16;;;-14.57;73.86
63700;BME280;49845;47.130;142.766;2024-01-10T05:09:50;100088.97;;;-14.58;74.08
63700;BME280;49845;47.130;142.766;2024-01-10T05:12:22;100084.72;;;-14.59;73.94
63700;BME280;49845;47.130;142.766;2024-01-10T05:14:53;100086.69;;;-14.55;73.93
63700;BME280;49845;47.130;142.766;2024-01-10T05:17:24;100094.97;;;-14.56;74.11
63700;BME280;49845;47.130;142.766;2024-01-10T05:19:54;100089.09;;;-14.57;74.44
63700;BME280;49845;47.130;142.766;2024-01-10T05:22:25;100090.84;;;-14.56;74.10
63700;BME280;49845;47.130;142.766;2024-01-10T05:24:55;100105.50;;;-14.50;74.13
63700;BME280;49845;47.130;142.766;2024-01-10T05:27:26;100096.19;;;-14.51;73.54
63700;BME280;49845;47.130;142.766;2024-01-10T05:29:57;100103.91;;;-14.60;73.32
63700;BME280;49845;47.130;142.766;2024-01-10T05:32:27;100108.31;;;-14.67;73.64
63700;BME280;49845;47.130;142.766;2024-01-10T05:34:58;100123.84;;;-14.71;73.74
63700;BME280;49845;47.130;142.766;2024-01-10T05:37:29;100126.84;;;-14.75;74.15
63700;BME280;49845;47.130;142.766;2024-01-10T05:39:59;100131.00;;;-14.76;74.05
63700;BME280;49845;47.130;142.766;2024-01-10T05:42:32;100138.91;;;-14.82;74.26
63700;BME280;49845;47.130;142.766;2024-01-10T05:45:02;100138.16;;;-14.81;74.02
63700;BME280;49845;47.130;142.766;2024-01-10T05:47:32;100155.69;;;-14.81;73.87
63700;BME280;49845;47.130;142.766;2024-01-10T05:50:03;100147.56;;;-14.98;74.15
63700;BME280;49845;47.130;142.766;2024-01-10T05:52:34;100160.34;;;-14.85;74.26
63700;BME280;49845;47.130;142.766;2024-01-10T05:55:06;100164.00;;;-14.92;74.09
63700;BME280;49845;47.130;142.766;2024-01-10T05:57:38;100163.72;;;-14.95;73.85
63700;BME280;49845;47.130;142.766;2024-01-10T06:00:10;100160.22;;;-14.97;73.84
63700;BME280;49845;47.130;142.766;2024-01-10T06:02:41;100175.00;;;-15.00;73.43
63700;BME280;49845;47.130;142.766;2024-01-10T06:05:12;100167.75;;;-15.07;73.56
63700;BME280;49845;47.130;142.766;2024-01-10T06:07:42;100168.38;;;-15.10;73.59
63700;BME280;49845;47.130;142.766;2024-01-10T06:10:13;100170.72;;;-15.11;73.67
63700;BME280;49845;47.130;142.766;2024-01-10T06:12:45;100182.00;;;-15.16;73.55
63700;BME280;49845;47.130;142.766;2024-01-10T06:15:15;100186.00;;;-15.18;73.67
63700;BME280;49845;47.130;142.766;2024-01-10T06:17:46;100188.53;;;-15.18;73.46
63700;BME280;49845;47.130;142.766;2024-01-10T06:20:18;100204.81;;;-15.13;73.37
63700;BME280;49845;47.130;142.766;2024-01-10T06:22:48;100199.31;;;-15.09;73.48
63700;BME280;49845;47.130;142.766;2024-01-10T06:25:19;100206.06;;;-15.18;73.06
63700;BME280;49845;47.130;142.766;2024-01-10T06:27:51;100223.84;;;-15.15;73.23
63700;BME280;49845;47.130;142.766;2024-01-10T06:30:21;100221.84;;;-15.19;72.88
63700;BME280;49845;47.130;142.766;2024-01-10T06:32:52;100223.34;;;-15.22;72.59
63700;BME280;49845;47.130;142.766;2024-01-10T06:35:23;100216.06;;;-15.29;72.30
63700;BME280;49845;47.130;142.766;2024-01-10T06:37:54;100225.84;;;-15.32;72.11
63700;BME280;49845;47.130;142.766;2024-01-10T06:40:27;100232.34;;;-15.34;72.34
63700;BME280;49845;47.130;142.766;2024-01-10T06:42:59;100222.78;;;-15.38;72.23
63700;BME280;49845;47.130;142.766;2024-01-10T06:45:30;100220.03;;;-15.41;72.28
63700;BME280;49845;47.130;142.766;2024-01-10T06:48:00;100226.03;;;-15.49;72.15
63700;BME280;49845;47.130;142.766;2024-01-10T06:50:31;100237.97;;;-15.66;71.74
63700;BME280;49845;47.130;142.766;2024-01-10T06:53:02;100240.47;;;-15.76;71.83
63700;BME280;49845;47.130;142.766;2024-01-10T06:55:32;100236.94;;;-15.78;72.00
63700;BME280;49845;47.130;142.766;2024-01-10T06:58:04;100235.63;;;-15.93;71.67
63700;BME280;49845;47.130;142.766;2024-01-10T07:00:34;100240.75;;;-16.11;71.55
63700;BME280;49845;47.130;142.766;2024-01-10T07:03:06;100242.44;;;-16.20;71.75
63700;BME280;49845;47.130;142.766;2024-01-10T07:05:37;100246.59;;;-16.39;71.23
63700;BME280;49845;47.130;142.766;2024-01-10T07:08:07;100252.50;;;-16.47;71.34
63700;BME280;49845;47.130;142.766;2024-01-10T07:10:38;100251.22;;;-16.53;71.48
63700;BME280;49845;47.130;142.766;2024-01-10T07:13:10;100245.88;;;-16.66;71.52
63700;BME280;49845;47.130;142.766;2024-01-10T07:15:40;100247.81;;;-17.00;71.01
63700;BME280;49845;47.130;142.766;2024-01-10T07:18:11;100270.56;;;-17.24;70.98
63700;BME280;49845;47.130;142.766;2024-01-10T07:20:41;100270.31;;;-17.45;71.37
63700;BME280;49845;47.130;142.766;2024-01-10T07:23:12;100280.66;;;-17.59;71.73
63700;BME280;49845;47.130;142.766;2024-01-10T07:25:42;100278.28;;;-17.57;72.46
63700;BME280;49845;47.130;142.766;2024-01-10T07:28:14;100286.81;;;-17.73;72.67
63700;BME280;49845;47.130;142.766;2024-01-10T07:30:45;100293.31;;;-18.18;71.83
63700;BME280;49845;47.130;142.766;2024-01-10T07:33:16;100302.63;;;-18.59;72.24
63700;BME280;49845;47.130;142.766;2024-01-10T07:35:46;100303.19;;;-18.71;72.80
63700;BME280;49845;47.130;142.766;2024-01-10T07:38:17;100301.72;;;-18.86;72.89
63700;BME280;49845;47.130;142.766;2024-01-10T07:40:47;100243.19;;;-19.40;73.07
63700;BME280;49845;47.130;142.766;2024-01-10T07:43:19;100326.16;;;-19.24;73.78
63700;BME280;49845;47.130;142.766;2024-01-10T07:45:50;100326.94;;;-19.41;74.33
63700;BME280;49845;47.130;142.766;2024-01-10T07:48:21;100331.66;;;-19.35;75.03
63700;BME280;49845;47.130;142.766;2024-01-10T07:50:51;100338.28;;;-19.51;75.04
63700;BME280;49845;47.130;142.766;2024-01-10T07:53:23;100337.34;;;-19.61;75.42
63700;BME280;49845;47.130;142.766;2024-01-10T07:55:55;100346.38;;;-19.70;75.17
63700;BME280;49845;47.130;142.766;2024-01-10T07:58:27;100343.13;;;-19.93;75.28
63700;BME280;49845;47.130;142.766;2024-01-10T08:00:58;100341.94;;;-20.13;75.48
63700;BME280;49845;47.130;142.766;2024-01-10T08:03:28;100345.59;;;-20.25;75.71
63700;BME280;49845;47.130;142.766;2024-01-10T08:05:59;100340.78;;;-20.39;76.02
63700;BME280;49845;47.130;142.766;2024-01-10T08:08:29;100334.06;;;-20.40;76.34
63700;BME280;49845;47.130;142.766;2024-01-10T08:10:59;100342.69;;;-20.53;76.18
63700;BME280;49845;47.130;142.766;2024-01-10T08:13:32;100342.31;;;-20.64;76.46
63700;BME280;49845;47.130;142.766;2024-01-10T08:16:03;100348.63;;;-20.75;76.96
63700;BME280;49845;47.130;142.766;2024-01-10T08:18:33;100352.34;;;-20.79;77.41
63700;BME280;49845;47.130;142.766;2024-01-10T08:21:04;100360.31;;;-20.74;77.61
63700;BME280;49845;47.130;142.766;2024-01-10T08:23:34;100356.00;;;-20.68;77.77
63700;BME280;49845;47.130;142.766;2024-01-10T08:26:07;100358.88;;;-20.72;77.63
63700;BME280;49845;47.130;142.766;2024-01-10T08:28:39;100360.34;;;-20.81;77.59
63700;BME280;49845;47.130;142.766;2024-01-10T08:31:10;100365.00;;;-20.84;77.71
63700;BME280;49845;47.130;142.766;2024-01-10T08:33:42;100374.94;;;-20.84;77.82
63700;BME280;49845;47.130;142.766;2024-01-10T08:36:13;100375.34;;;-20.88;77.89
63700;BME280;49845;47.130;142.766;2024-01-10T08:38:44;100379.97;;;-20.92;77.87
63700;BME280;49845;47.130;142.766;2024-01-10T08:41:14;100382.84;;;-20.96;78.07
63700;BME280;49845;47.130;142.766;2024-01-10T08:43:46;100372.78;;;-21.04;78.26
63700;BME280;49845;47.130;142.766;2024-01-10T08:46:17;100387.91;;;-20.87;78.47
63700;BME280;49845;47.130;142.766;2024-01-10T08:48:48;100386.25;;;-20.79;78.23
63700;BME280;49845;47.130;142.766;2024-01-10T08:51:19;100388.09;;;-20.85;77.86
63700;BME280;49845;47.130;142.766;2024-01-10T08:53:49;100387.81;;;-20.96;77.91
63700;BME280;49845;47.130;142.766;2024-01-10T08:56:21;100377.97;;;-21.10;77.99
63700;BME280;49845;47.130;142.766;2024-01-10T08:58:53;100383.94;;;-21.01;78.36
63700;BME280;49845;47.130;142.766;2024-01-10T09:01:35;100384.97;;;-20.99;78.67
63700;BME280;49845;47.130;142.766;2024-01-10T09:04:07;100392.03;;;-20.95;78.52
63700;BME280;49845;47.130;142.766;2024-01-10T09:06:37;100389.56;;;-20.95;78.60
63700;BME280;49845;47.130;142.766;2024-01-10T09:09:07;100393.44;;;-20.90;78.63
63700;BME280;49845;47.130;142.766;2024-01-10T09:11:38;100402.25;;;-20.84;78.87
63700;BME280;49845;47.130;142.766;2024-01-10T09:14:13;100407.91;;;-20.78;79.09
63700;BME280;49845;47.130;142.766;2024-01-10T09:16:44;100408.41;;;-20.74;79.07
63700;BME280;49845;47.130;142.766;2024-01-10T09:19:14;100409.22;;;-20.66;79.30
63700;BME280;49845;47.130;142.766;2024-01-10T09:21:45;100424.44;;;-20.63;79.19
63700;BME280;49845;47.130;142.766;2024-01-10T09:24:16;100422.34;;;-20.67;78.82
63700;BME280;49845;47.130;142.766;2024-01-10T09:26:56;100437.81;;;-20.70;78.65
63700;BME280;49845;47.130;142.766;2024-01-10T09:29:28;100449.00;;;-20.34;79.11
63700;BME280;49845;47.130;142.766;2024-01-10T09:31:59;100454.53;;;-20.37;78.10
63700;BME280;49845;47.130;142.766;2024-01-10T09:34:30;100461.84;;;-20.38;77.40
63700;BME280;49845;47.130;142.766;2024-01-10T09:37:01;100458.00;;;-20.43;76.31
63700;BME280;49845;47.130;142.766;2024-01-10T09:39:32;100454.25;;;-20.63;75.57
63700;BME280;49845;47.130;142.766;2024-01-10T09:42:03;100451.59;;;-20.87;74.45
63700;BME280;49845;47.130;142.766;2024-01-10T09:44:36;100474.03;;;-21.09;74.20
63700;BME280;49845;47.130;142.766;2024-01-10T09:47:07;100468.75;;;-21.12;74.57
63700;BME280;49845;47.130;142.766;2024-01-10T09:49:38;100469.06;;;-21.02;74.91
63700;BME280;49845;47.130;142.766;2024-01-10T09:52:10;100470.72;;;-20.86;75.27
63700;BME280;49845;47.130;142.766;2024-01-10T09:54:41;100474.22;;;-20.77;74.87
63700;BME280;49845;47.130;142.766;2024-01-10T09:57:15;100462.50;;;-20.71;74.73
63700;BME280;49845;47.130;142.766;2024-01-10T09:59:47;100468.72;;;-20.75;74.34
63700;BME280;49845;47.130;142.766;2024-01-10T10:02:20;100463.28;;;-20.86;73.93
63700;BME280;49845;47.130;142.766;2024-01-10T10:04:56;100422.75;;;-21.32;73.07
63700;BME280;49845;47.130;142.766;2024-01-10T10:07:43;100471.69;;;-21.30;73.18
63700;BME280;49845;47.130;142.766;2024-01-10T10:10:14;100466.31;;;-21.19;73.73
63700;BME280;49845;47.130;142.766;2024-01-10T10:12:46;100459.91;;;-21.17;73.47
63700;BME280;49845;47.130;142.766;2024-01-10T10:15:20;100416.53;;;-21.51;73.38
63700;BME280;49845;47.130;142.766;2024-01-10T10:17:51;100483.28;;;-21.08;73.54
63700;BME280;49845;47.130;142.766;2024-01-10T10:20:23;100499.28;;;-21.20;73.11
63700;BME280;49845;47.130;142.766;2024-01-10T10:23:01;100499.78;;;-21.08;73.57
63700;BME280;49845;47.130;142.766;2024-01-10T10:25:34;100493.84;;;-20.95;73.49
63700;BME280;49845;47.130;142.766;2024-01-10T10:28:06;100495.09;;;-20.91;73.00
63700;BME280;49845;47.130;142.766;2024-01-10T10:30:48;100505.75;;;-20.99;72.70
63700;BME280;49845;47.130;142.766;2024-01-10T10:33:22;100513.84;;;-21.23;72.16
63700;BME280;49845;47.130;142.766;2024-01-10T10:35:52;100515.53;;;-21.38;72.35
63700;BME280;49845;47.130;142.766;2024-01-10T10:38:23;100506.78;;;-21.27;72.75
63700;BME280;49845;47.130;142.766;2024-01-10T10:40:53;100510.31;;;-21.25;72.92
63700;BME280;49845;47.130;142.766;2024-01-10T10:43:24;100506.31;;;-21.39;72.67
63700;BME280;49845;47.130;142.766;2024-01-10T10:45:57;100506.56;;;-21.59;72.74
63700;BME280;49845;47.130;142.766;2024-01-10T10:48:33;100486.78;;;-21.73;73.15
63700;BME280;49845;47.130;142.766;2024-01-10T10:51:05;100491.03;;;-21.80;73.31
63700;BME280;49845;47.130;142.766;2024-01-10T10:53:38;100493.16;;;-21.83;73.64
63700;BME280;49845;47.130;142.766;2024-01-10T10:56:09;100505.91;;;-21.80;73.74
63700;BME280;49845;47.130;142.766;2024-01-10T10:58:42;100504.84;;;-21.89;74.16
63700;BME280;49845;47.130;142.766;2024-01-10T11:01:14;100514.94;;;-21.73;74.55
63700;BME280;49845;47.130;142.766;2024-01-10T11:03:46;100515.06;;;-21.57;75.07
63700;BME280;49845;47.130;142.766;2024-01-10T11:06:18;100526.66;;;-21.35;75.30
63700;BME280;49845;47.130;142.766;2024-01-10T11:08:51;100484.94;;;-21.60;74.53
63700;BME280;49845;47.130;142.766;2024-01-10T11:11:33;100534.09;;;-21.35;74.45
63700;BME280;49845;47.130;142.766;2024-01-10T11:14:18;100530.91;;;-21.34;73.79
63700;BME280;49845;47.130;142.766;2024-01-10T11:17:29;100544.06;;;-21.49;72.91
63700;BME280;49845;47.130;142.766;2024-01-10T11:20:14;100529.47;;;-21.32;73.36
63700;BME280;49845;47.130;142.766;2024-01-10T11:23:10;100490.53;;;-21.40;73.23
63700;BME280;49845;47.130;142.766;2024-01-10T11:25:43;100558.81;;;-21.06;72.30
63700;BME280;49845;47.130;142.766;2024-01-10T11:28:14;100554.41;;;-21.08;71.49
63700;BME280;49845;47.130;142.766;2024-01-10T11:30:51;100560.63;;;-21.19;70.58
63700;BME280;49845;47.130;142.766;2024-01-10T11:33:31;100560.22;;;-21.45;69.68
63700;BME280;49845;47.130;142.766;2024-01-10T11:36:15;100562.56;;;-21.75;69.10
63700;BME280;49845;47.130;142.766;2024-01-10T11:38:50;100550.56;;;-22.08;69.29
63700;BME280;49845;47.130;142.766;2024-01-10T11:41:25;100542.75;;;-22.18;70.35
63700;BME280;49845;47.130;142.766;2024-01-10T11:44:27;100558.69;;;-21.88;71.49
63700;BME280;49845;47.130;142.766;2024-01-10T11:46:58;100571.44;;;-21.70;71.96
63700;BME280;49845;47.130;142.766;2024-01-10T11:49:31;100560.78;;;-21.62;72.13
63700;BME280;49845;47.130;142.766;2024-01-10T11:52:02;100567.13;;;-21.50;72.40
63700;BME280;49845;47.130;142.766;2024-01-10T11:54:45;100564.50;;;-21.14;73.17
63700;BME280;49845;47.130;142.766;2024-01-10T11:57:20;100539.69;;;-21.14;72.91
63700;BME280;49845;47.130;142.766;2024-01-10T11:59:52;100517.72;;;-21.18;72.75
63700;BME280;49845;47.130;142.766;2024-01-10T12:02:23;100572.53;;;-20.86;72.11
63700;BME280;49845;47.130;142.766;2024-01-10T12:04:56;100584.09;;;-20.94;71.18
63700;BME280;49845;47.130;142.766;2024-01-10T12:07:27;100586.22;;;-20.90;70.76
63700;BME280;49845;47.130;142.766;2024-01-10T12:09:58;100586.44;;;-20.96;70.02
63700;BME280;49845;47.130;142.766;2024-01-10T12:12:29;100599.25;;;-21.14;69.24
63700;BME280;49845;47.130;142.766;2024-01-10T12:14:59;100597.84;;;-21.26;69.02
63700;BME280;49845;47.130;142.766;2024-01-10T12:17:30;100594.66;;;-21.18;68.94
63700;BME280;49845;47.130;142.766;2024-01-10T12:20:03;100605.69;;;-21.30;68.39
63700;BME280;49845;47.130;142.766;2024-01-10T12:22:36;100602.94;;;-21.55;68.30
63700;BME280;49845;47.130;142.766;2024-01-10T12:25:07;100607.16;;;-21.61;68.39
63700;BME280;49845;47.130;142.766;2024-01-10T12:27:38;100597.97;;;-21.84;68.03
63700;BME280;49845;47.130;142.766;2024-01-10T12:30:09;100604.19;;;-22.09;68.65
63700;BME280;49845;47.130;142.766;2024-01-10T12:32:39;100600.13;;;-22.37;69.64
63700;BME280;49845;47.130;142.766;2024-01-10T12:35:11;100602.94;;;-22.41;70.79
63700;BME280;49845;47.130;142.766;2024-01-10T12:37:42;100610.03;;;-22.37;71.18
63700;BME280;49845;47.130;142.766;2024-01-10T12:40:13;100594.81;;;-22.40;71.50
63700;BME280;49845;47.130;142.766;2024-01-10T12:42:43;100597.63;;;-22.44;71.82
63700;BME280;49845;47.130;142.766;2024-01-10T12:45:23;100601.53;;;-22.39;72.26